Portada
METAR-TAF:

METAR-TAF

Aeroports :

Chitose, Japó

latitud: 42-48N, longitud: 141-40E, altitud: 27 m

Observació

L'informe es va fer fa 16 minuts, a les 14:00 UTC
Vent 2 kt amb direcció variable
Temperatura 0°C
Humitat 93%
Pressió 1023 hPa
Visibilitat 10 km o més
Escasses núvols a una alçada de 2500 ft

METAR: RJCC 301400Z VRB02KT 9999 FEW025 00/M01 Q1023 RMK 1CU025 A3021

Hora: 23:16 (14:16 UTC)

Pronòstic

L'informe es va fer fa 3 hores i 11 minuts, a les 11:05 UTC
Pronòstic vàlid del 30 a les 12 UTC al 31 a les 18 UTC
Vent 5 kt del Sud-Est
Visibilitat 10 km o més
Escasses núvols a una alçada de 3000 ft
Evolucionant progressivament
l' 31 a les 00 UTC al 31 a les 03 UTC
Vent 17 kt del Sud
Evolucionant progressivament
l' 31 a les 09 UTC al 31 a les 12 UTC
Vent 7 kt del Sud/Sud-Est

TAF: RJCC 301105Z 3012/3118 13005KT 9999 FEW030 BECMG 3100/3103 17017KT BECMG 3109/3112 15007KT

Observacions i pronòstics meteorològics de més de 4000 aeroports (METAR i TAF).

Les estacions disponibles són els punts grocs i vermells al mapa.

Posi el ratolí al punt desitjat per veure el nom de l'estació.

Feu clic per veure les observacions i els pronòstics meteorològics.

Per canviar el mapa: feu clic els botons verds amb una creu de color negre per apropar; al botó verd amb un guió per allunyar la imatge; o en les fletxes verdes per a mapes adjacents.


METAR-TAF: